East Blacksea — T2ZH3 — position and weather

sailwx.info

Track history (hours):
 
Tides and Currents Weather Stations Pressure Air Temp Water Temp Dewpoint Dewpoint Depression Visibility Wind Speed Wind Dir Waves Ship Positions

East Blacksea

Last reported at 2017-Sep-20 20:35 UTC. Time now 2017-Sep-20 23:57 UTC.
Position N 43°45' E 034°51'.

Length 69 m; draft 4 m.

Type: Cargo ship. MMSI: 572341210.

Date/timePositionNaut miles runAvg speedWind from/ knotsBaromVisibWave heightAir tempDewpointWater temp
2017-Sep-20 20:35N 43°45' E 034°51'0 6.6
2017-Sep-20 20:30N 43°46' E 034°52'5 6.7
2017-Sep-20 19:43N 43°50' E 034°56'2 6.8
2017-Sep-20 19:24N 43°51' E 034°58'3 6.9
2017-Sep-20 18:57N 43°54' E 035°01'3 7.1
2017-Sep-20 18:30N 43°56' E 035°04'27 7.1
2017-Sep-20 14:41N 44°15' E 035°31'5 7.1
2017-Sep-20 13:59N 44°18' E 035°36'62 6.5
2017-Sep-20 04:21N 45°08' E 036°29'3 6.5
2017-Sep-20 03:52N 45°11' E 036°28'2 6.5
2017-Sep-20 03:30N 45°14' E 036°28'3 6.1
2017-Sep-20 03:00N 45°17' E 036°28'3 6.5
2017-Sep-20 02:28N 45°19' E 036°32'3 7.3
2017-Sep-20 02:00N 45°20' E 036°36'3 6.5
2017-Sep-20 01:30N 45°23' E 036°40'2 4.5
2017-Sep-20 01:00N 45°25' E 036°41'2 4.6
2017-Sep-20 00:30N 45°27' E 036°39'1 1.9
2017-Sep-19 23:58N 45°27' E 036°38'0 0.0
2017-Sep-19 22:37N 45°27' E 036°38'0 0.0
2017-Sep-19 22:22N 45°27' E 036°38'0 0.0
2017-Sep-19 21:58N 45°27' E 036°38'0 0.0
2017-Sep-19 21:16N 45°27' E 036°38'0 0.0
2017-Sep-19 20:58N 45°27' E 036°38'0 0.0
2017-Sep-19 20:22N 45°27' E 036°38'0 0.0
2017-Sep-19 19:55N 45°27' E 036°38'0 0.0
2017-Sep-19 19:22N 45°27' E 036°38'0 0.0
2017-Sep-19 18:58N 45°27' E 036°38'0 0.0
2017-Sep-19 18:19N 45°27' E 036°38'0 0.0
2017-Sep-19 17:46N 45°27' E 036°38'0 0.0
2017-Sep-19 16:31N 45°27' E 036°38'0 0.0
2017-Sep-19 15:37N 45°27' E 036°38'0 0.1
2017-Sep-19 15:28N 45°27' E 036°38'0 0.5
2017-Sep-19 15:00N 45°27' E 036°38'3 6.2
2017-Sep-19 14:30N 45°30' E 036°41'5 6.5
2017-Sep-19 13:41N 45°34' E 036°45'  
2017-Sep-14 14:04N 45°30' E 036°44'1 7.4
2017-Sep-14 13:59N 45°30' E 036°44'4 7.6
2017-Sep-14 13:30N 45°26' E 036°42'4 7.1
2017-Sep-14 13:00N 45°23' E 036°40'3 5.4
2017-Sep-14 12:30N 45°21' E 036°38'3 6.0
2017-Sep-14 12:00N 45°20' E 036°34'4 7.0
2017-Sep-14 11:30N 45°18' E 036°30'3 6.7
2017-Sep-14 11:00N 45°15' E 036°28'3 5.3
2017-Sep-14 10:30N 45°12' E 036°29'1 0.9
2017-Sep-14 08:52N 45°11' E 036°30'2 4.8
2017-Sep-14 08:29N 45°09' E 036°30'80 7.3
2017-Sep-13 21:31N 43°49' E 036°29'0 7.7
2017-Sep-13 21:30N 43°49' E 036°29'29 7.7
2017-Sep-13 17:46N 43°20' E 036°28'6 7.5
2017-Sep-13 16:55N 43°14' E 036°27'8 7.5
2017-Sep-13 15:53N 43°06' E 036°27'5 7.4
2017-Sep-13 15:10N 43°00' E 036°27'1 7.4
2017-Sep-13 15:00N 42°59' E 036°27'5 7.4
2017-Sep-13 14:16N 42°54' E 036°26'2 7.3
2017-Sep-13 13:58N 42°52' E 036°26'13 7.1
2017-Sep-13 12:11N 42°39' E 036°26'81 1.8
2017-Sep-11 15:40N 41°18' E 036°21'0 0.0
2017-Sep-11 15:28N 41°18' E 036°21'0 0.0
2017-Sep-11 14:58N 41°18' E 036°21'0 0.0
2017-Sep-11 13:10N 41°18' E 036°21'0 0.0
2017-Sep-11 10:00N 41°18' E 036°21'0 0.0
2017-Sep-11 05:06N 41°18' E 036°21'0 0.0
2017-Sep-11 05:00N 41°18' E 036°21'  
Track history (hours):
 
Tides and Currents Weather Stations Pressure Air Temp Water Temp Dewpoint Dewpoint Depression Visibility Wind Speed Wind Dir Waves Ship Positions

East Blacksea

Last reported at 2017-Sep-20 20:35 UTC. Time now 2017-Sep-20 23:57 UTC.
Position N 43°45' E 034°51'.

Length 69 m; draft 4 m.

Type: Cargo ship. MMSI: 572341210.

Date/timePositionNaut miles runAvg speedWind from/ knotsBaromVisibWave heightAir tempDewpointWater temp
2017-Sep-20 20:35N 43°45' E 034°51'0 6.6
2017-Sep-20 20:30N 43°46' E 034°52'5 6.7
2017-Sep-20 19:43N 43°50' E 034°56'2 6.8
2017-Sep-20 19:24N 43°51' E 034°58'3 6.9
2017-Sep-20 18:57N 43°54' E 035°01'3 7.1
2017-Sep-20 18:30N 43°56' E 035°04'27 7.1
2017-Sep-20 14:41N 44°15' E 035°31'5 7.1
2017-Sep-20 13:59N 44°18' E 035°36'62 6.5
2017-Sep-20 04:21N 45°08' E 036°29'3 6.5
2017-Sep-20 03:52N 45°11' E 036°28'2 6.5
2017-Sep-20 03:30N 45°14' E 036°28'3 6.1
2017-Sep-20 03:00N 45°17' E 036°28'3 6.5
2017-Sep-20 02:28N 45°19' E 036°32'3 7.3
2017-Sep-20 02:00N 45°20' E 036°36'3 6.5
2017-Sep-20 01:30N 45°23' E 036°40'2 4.5
2017-Sep-20 01:00N 45°25' E 036°41'2 4.6
2017-Sep-20 00:30N 45°27' E 036°39'1 1.9
2017-Sep-19 23:58N 45°27' E 036°38'0 0.0
2017-Sep-19 22:37N 45°27' E 036°38'0 0.0
2017-Sep-19 22:22N 45°27' E 036°38'0 0.0
2017-Sep-19 21:58N 45°27' E 036°38'0 0.0
2017-Sep-19 21:16N 45°27' E 036°38'0 0.0
2017-Sep-19 20:58N 45°27' E 036°38'0 0.0
2017-Sep-19 20:22N 45°27' E 036°38'0 0.0
2017-Sep-19 19:55N 45°27' E 036°38'0 0.0
2017-Sep-19 19:22N 45°27' E 036°38'0 0.0
2017-Sep-19 18:58N 45°27' E 036°38'0 0.0
2017-Sep-19 18:19N 45°27' E 036°38'0 0.0
2017-Sep-19 17:46N 45°27' E 036°38'0 0.0
2017-Sep-19 16:31N 45°27' E 036°38'0 0.0
2017-Sep-19 15:37N 45°27' E 036°38'0 0.1
2017-Sep-19 15:28N 45°27' E 036°38'0 0.5
2017-Sep-19 15:00N 45°27' E 036°38'3 6.2
2017-Sep-19 14:30N 45°30' E 036°41'5 6.5
2017-Sep-19 13:41N 45°34' E 036°45'  
2017-Sep-14 14:04N 45°30' E 036°44'1 7.4
2017-Sep-14 13:59N 45°30' E 036°44'4 7.6
2017-Sep-14 13:30N 45°26' E 036°42'4 7.1
2017-Sep-14 13:00N 45°23' E 036°40'3 5.4
2017-Sep-14 12:30N 45°21' E 036°38'3 6.0
2017-Sep-14 12:00N 45°20' E 036°34'4 7.0
2017-Sep-14 11:30N 45°18' E 036°30'3 6.7
2017-Sep-14 11:00N 45°15' E 036°28'3 5.3
2017-Sep-14 10:30N 45°12' E 036°29'1 0.9
2017-Sep-14 08:52N 45°11' E 036°30'2 4.8
2017-Sep-14 08:29N 45°09' E 036°30'80 7.3
2017-Sep-13 21:31N 43°49' E 036°29'0 7.7
2017-Sep-13 21:30N 43°49' E 036°29'29 7.7
2017-Sep-13 17:46N 43°20' E 036°28'6 7.5
2017-Sep-13 16:55N 43°14' E 036°27'8 7.5
2017-Sep-13 15:53N 43°06' E 036°27'5 7.4
2017-Sep-13 15:10N 43°00' E 036°27'1 7.4
2017-Sep-13 15:00N 42°59' E 036°27'5 7.4
2017-Sep-13 14:16N 42°54' E 036°26'2 7.3
2017-Sep-13 13:58N 42°52' E 036°26'13 7.1
2017-Sep-13 12:11N 42°39' E 036°26'81 1.8
2017-Sep-11 15:40N 41°18' E 036°21'0 0.0
2017-Sep-11 15:28N 41°18' E 036°21'0 0.0
2017-Sep-11 14:58N 41°18' E 036°21'0 0.0
2017-Sep-11 13:10N 41°18' E 036°21'0 0.0
2017-Sep-11 10:00N 41°18' E 036°21'0 0.0
2017-Sep-11 05:06N 41°18' E 036°21'0 0.0
2017-Sep-11 05:00N 41°18' E 036°21'  

Dump ship's entire track history